Time;durP1;ratioP1;P1;durP2;ratioP2;P2;SDS_P1;SDS_P2;PMS_P1;PMS_P2;Temp;Humidity;BMP_temperature;BMP_pressure;BME280_temperature;BME280_humidity;BME280_pressure;Samples;Min_cycle;Max_cycle;Signal;HPM_P1;HPM_P2
2023/11/30 00:01:50;;;;;;;7.13;3.72;;;;;;;0.80;100.00;99427.22;5171226;28;20030;-73
2023/11/30 00:04:20;;;;;;;10.00;4.00;;;;;;;0.87;100.00;99421.09;5176116;28;20075;-73
2023/11/30 00:06:50;;;;;;;8.48;3.90;;;;;;;0.77;100.00;99424.72;5154438;28;20143;-73
2023/11/30 00:09:20;;;;;;;8.48;2.95;;;;;;;0.71;100.00;99422.22;5174316;28;20064;-73
2023/11/30 00:11:51;;;;;;;5.40;2.47;;;;;;;0.67;100.00;99433.41;5157528;28;20041;-73
2023/11/30 00:14:21;;;;;;;6.28;3.17;;;;;;;0.61;100.00;99435.22;5174112;28;20026;-73
2023/11/30 00:16:51;;;;;;;6.20;2.85;;;;;;;0.66;100.00;99438.56;5173240;28;20049;-73
2023/11/30 00:19:22;;;;;;;7.15;2.97;;;;;;;0.61;100.00;99438.66;5173097;28;20014;-73
2023/11/30 00:21:52;;;;;;;5.05;2.67;;;;;;;0.74;100.00;99434.19;5171036;28;20083;-73
2023/11/30 00:24:22;;;;;;;6.53;2.92;;;;;;;0.76;100.00;99435.84;5174416;28;20018;-73
2023/11/30 00:26:52;;;;;;;4.93;2.50;;;;;;;0.95;100.00;99426.13;5171936;28;20036;-73
2023/11/30 00:29:23;;;;;;;5.10;2.35;;;;;;;1.00;100.00;99432.91;5175686;28;20129;-73
2023/11/30 00:31:53;;;;;;;5.22;2.65;;;;;;;1.03;100.00;99434.59;5169810;28;20104;-73
2023/11/30 00:34:23;;;;;;;4.97;2.28;;;;;;;0.89;100.00;99432.22;5173791;28;20248;-73
2023/11/30 00:36:53;;;;;;;4.38;2.20;;;;;;;0.98;100.00;99431.22;5153106;28;20499;-73
2023/11/30 00:39:24;;;;;;;5.60;2.35;;;;;;;0.89;100.00;99432.22;5156053;28;20483;-69
2023/11/30 00:41:54;;;;;;;4.05;2.15;;;;;;;0.82;100.00;99425.47;5175172;28;20030;-75
2023/11/30 00:44:24;;;;;;;6.55;2.80;;;;;;;0.73;100.00;99433.31;5175064;28;20121;-74
2023/11/30 00:46:55;;;;;;;5.10;2.50;;;;;;;0.64;100.00;99436.03;5173942;28;20018;-75
2023/11/30 00:49:25;;;;;;;5.22;2.22;;;;;;;0.66;100.00;99429.16;5173863;28;20018;-75
2023/11/30 00:51:55;;;;;;;3.78;1.92;;;;;;;0.62;100.00;99436.91;5173120;28;20513;-75
2023/11/30 00:54:26;;;;;;;5.03;2.63;;;;;;;0.63;100.00;99429.19;5172944;28;20049;-75
2023/11/30 00:56:56;;;;;;;6.80;2.65;;;;;;;0.52;100.00;99441.34;5172602;28;20761;-75
2023/11/30 00:59:26;;;;;;;4.88;2.80;;;;;;;0.56;100.00;99440.41;5156325;28;20024;-74
2023/11/30 01:01:56;;;;;;;5.53;2.78;;;;;;;0.59;100.00;99442.09;5156581;28;20034;-75
2023/11/30 01:04:27;;;;;;;5.35;2.45;;;;;;;0.58;100.00;99445.53;5173136;28;20029;-75
2023/11/30 01:06:57;;;;;;;4.65;2.40;;;;;;;0.48;100.00;99437.13;5168177;28;20550;-75
2023/11/30 01:09:27;;;;;;;4.72;2.47;;;;;;;0.53;100.00;99443.03;5169950;28;20113;-75
2023/11/30 01:11:58;;;;;;;5.55;2.53;;;;;;;0.51;100.00;99447.34;5173804;28;20418;-75
2023/11/30 01:14:28;;;;;;;6.50;2.95;;;;;;;0.56;100.00;99445.56;5173503;28;20025;-75
2023/11/30 01:16:58;;;;;;;5.32;3.08;;;;;;;0.61;100.00;99448.94;5172840;28;20026;-75
2023/11/30 01:19:28;;;;;;;5.05;2.53;;;;;;;0.52;100.00;99448.22;5174500;28;20121;-75
2023/11/30 01:21:59;;;;;;;4.93;2.70;;;;;;;0.49;100.00;99455.94;5174754;28;20117;-75
2023/11/30 01:24:29;;;;;;;4.93;2.33;;;;;;;0.49;100.00;99454.22;5156764;28;20491;-74
2023/11/30 01:26:59;;;;;;;5.80;2.53;;;;;;;0.40;100.00;99459.47;5166065;28;20026;-75
2023/11/30 01:29:30;;;;;;;5.55;2.70;;;;;;;0.53;100.00;99452.47;5176300;28;20491;-72
2023/11/30 01:32:00;;;;;;;5.30;2.60;;;;;;;0.45;100.00;99456.84;5177050;28;20033;-75
2023/11/30 01:34:30;;;;;;;4.15;2.40;;;;;;;0.32;100.00;99456.16;5177592;28;20207;-74
2023/11/30 01:37:01;;;;;;;6.38;2.65;;;;;;;0.49;100.00;99451.66;5177910;28;20033;-75
2023/11/30 01:39:32;;;;;;;7.82;2.90;;;;;;;0.55;100.00;99451.56;5178226;28;20032;-74
2023/11/30 01:42:02;;;;;;;6.30;2.35;;;;;;;0.59;100.00;99448.06;5176535;28;20034;-74
2023/11/30 01:44:32;;;;;;;5.30;2.50;;;;;;;0.63;100.00;99436.91;5159390;28;20030;-72
2023/11/30 01:47:04;;;;;;;5.18;2.53;;;;;;;0.54;100.00;99446.47;5178722;28;20033;-74
2023/11/30 01:49:34;;;;;;;5.55;2.88;;;;;;;0.43;100.00;99451.75;5176862;28;20025;-75
2023/11/30 01:52:05;;;;;;;5.93;2.97;;;;;;;0.48;100.00;99451.66;5176614;28;20026;-74
2023/11/30 01:54:35;;;;;;;6.28;2.80;;;;;;;0.46;100.00;99450.84;5177203;28;20022;-75
2023/11/30 01:57:06;;;;;;;6.38;2.83;;;;;;;0.35;100.00;99453.56;5160669;28;20510;-74
2023/11/30 01:59:36;;;;;;;9.20;2.75;;;;;;;0.23;100.00;99452.88;5177725;28;20033;-74
2023/11/30 02:02:07;;;;;;;5.35;2.55;;;;;;;0.26;100.00;99457.97;5177329;28;20515;-74
2023/11/30 02:04:42;;;;;;;4.90;2.60;;;;;;;0.21;100.00;99455.44;5177988;28;20038;-75
2023/11/30 02:07:12;;;;;;;4.60;2.42;;;;;;;0.21;100.00;99454.63;5178104;28;20065;-76
2023/11/30 02:09:42;;;;;;;4.65;2.30;;;;;;;0.07;100.00;99453.94;5166228;28;20129;-75
2023/11/30 02:12:13;;;;;;;6.47;2.60;;;;;;;0.16;100.00;99456.38;5177256;28;20034;-73
2023/11/30 02:14:43;;;;;;;4.97;2.58;;;;;;;0.28;100.00;99449.38;5176882;28;20088;-74
2023/11/30 02:17:13;;;;;;;3.95;2.10;;;;;;;0.42;100.00;99444.88;5177401;28;20064;-75
2023/11/30 02:19:44;;;;;;;5.05;2.42;;;;;;;0.36;100.00;99439.84;5176591;28;20026;-75
2023/11/30 02:22:14;;;;;;;4.38;2.13;;;;;;;0.53;100.00;99443.03;5173863;28;20030;-73
2023/11/30 02:24:44;;;;;;;4.18;2.08;;;;;;;0.38;100.00;99432.13;5168893;28;20025;-74
2023/11/30 02:27:15;;;;;;;5.53;2.45;;;;;;;0.37;100.00;99433.84;5143322;28;20026;-73
2023/11/30 02:29:45;;;;;;;5.18;2.30;;;;;;;0.41;100.00;99426.94;5150504;28;20769;-74
2023/11/30 02:32:15;;;;;;;6.32;2.40;;;;;;;0.30;100.00;99421.94;5175322;28;20029;-75
2023/11/30 02:34:46;;;;;;;4.93;2.15;;;;;;;0.33;100.00;99421.91;5168716;28;20104;-76
2023/11/30 02:37:16;;;;;;;4.68;2.22;;;;;;;0.36;100.00;99423.59;5151878;28;20033;-75
2023/11/30 02:39:46;;;;;;;5.20;2.08;;;;;;;0.30;100.00;99416.81;5172924;28;20028;-75
2023/11/30 02:42:16;;;;;;;7.07;2.22;;;;;;;0.22;100.00;99417.78;5171945;28;20029;-74
2023/11/30 02:44:47;;;;;;;5.32;2.67;;;;;;;0.24;100.00;99414.31;5168959;28;20044;-75
2023/11/30 02:47:17;;;;;;;5.28;2.30;;;;;;;0.30;100.00;99411.69;5169608;28;20124;-74
2023/11/30 02:49:47;;;;;;;5.50;2.50;;;;;;;0.21;100.00;99418.66;5166937;28;20026;-75
2023/11/30 02:52:18;;;;;;;5.97;2.65;;;;;;;0.36;100.00;99416.72;5169584;28;20045;-75
2023/11/30 02:54:48;;;;;;;4.55;2.40;;;;;;;0.33;100.00;99416.78;5168147;28;20034;-75
2023/11/30 02:57:18;;;;;;;5.03;2.58;;;;;;;0.24;100.00;99414.31;5159306;28;20081;-74
2023/11/30 02:59:49;;;;;;;5.72;2.60;;;;;;;0.40;100.00;99407.25;5176295;28;20482;-74
2023/11/30 03:02:19;;;;;;;6.07;2.67;;;;;;;0.28;100.00;99410.00;5171391;28;20029;-74
2023/11/30 03:04:49;;;;;;;4.45;2.35;;;;;;;0.35;100.00;99409.88;5172596;28;20590;-74
2023/11/30 03:07:20;;;;;;;7.65;2.95;;;;;;;0.30;100.00;99413.38;5172635;28;20030;-74
2023/11/30 03:09:50;;;;;;;11.65;2.83;;;;;;;0.31;100.00;99405.66;5167985;28;20513;-75
2023/11/30 03:12:20;;;;;;;8.57;2.92;;;;;;;0.12;100.00;99404.22;5176596;28;20483;-75
2023/11/30 03:14:51;;;;;;;6.45;3.03;;;;;;;0.20;100.00;99411.81;5176426;28;20030;-75
2023/11/30 03:17:21;;;;;;;5.22;2.70;;;;;;;0.17;100.00;99410.13;5171975;28;20022;-75
2023/11/30 03:19:51;;;;;;;8.32;2.80;;;;;;;0.14;100.00;99412.75;5175709;28;20033;-75
2023/11/30 03:22:21;;;;;;;6.57;2.83;;;;;;;0.11;100.00;99399.94;5159025;28;20630;-76
2023/11/30 03:24:52;;;;;;;8.88;3.33;;;;;;;-0.02;100.00;99398.41;5172793;28;20066;-74
2023/11/30 03:27:22;;;;;;;6.93;3.50;;;;;;;-0.03;100.00;99395.00;5172133;28;20399;-74
2023/11/30 03:29:52;;;;;;;7.38;3.58;;;;;;;0.07;100.00;99398.28;5168789;28;20034;-75
2023/11/30 03:32:22;;;;;;;8.45;3.65;;;;;;;-0.03;100.00;99399.28;5176702;28;20177;-75
2023/11/30 03:34:53;;;;;;;10.63;3.88;;;;;;;-0.08;100.00;99396.78;5167761;28;20412;-75
2023/11/30 03:37:23;;;;;;;9.07;4.20;;;;;;;-0.27;100.00;99392.72;5170631;28;20088;-75
2023/11/30 03:39:53;;;;;;;10.88;3.95;;;;;;;-0.27;100.00;99392.72;5169969;28;20887;-74
2023/11/30 03:42:24;;;;;;;8.57;4.03;;;;;;;-0.33;100.00;99391.09;5168919;28;20060;-73
2023/11/30 03:44:54;;;;;;;11.27;4.43;;;;;;;-0.44;100.00;99384.34;5174050;28;20029;-73
2023/11/30 03:47:24;;;;;;;9.45;3.75;;;;;;;-0.39;100.00;99392.88;5168774;28;20739;-72
2023/11/30 03:49:55;;;;;;;9.63;4.68;;;;;;;-0.48;100.00;99390.41;5151029;28;20022;-76
2023/11/30 03:52:25;;;;;;;8.30;3.83;;;;;;;-0.54;100.00;99404.13;5155076;28;20030;-75
2023/11/30 03:54:55;;;;;;;7.65;4.10;;;;;;;-0.73;100.00;99396.66;5154054;28;20113;-73
2023/11/30 03:57:26;;;;;;;9.63;4.45;;;;;;;-0.74;100.00;99393.22;5170481;28;20029;-74
2023/11/30 03:59:56;;;;;;;9.38;4.28;;;;;;;-0.79;100.00;99397.56;5176156;28;20041;-72
2023/11/30 04:02:26;;;;;;;8.25;4.30;;;;;;;-0.87;100.00;99395.94;5170661;28;20054;-74
2023/11/30 04:04:57;;;;;;;9.48;3.97;;;;;;;-0.91;100.00;99391.72;5172789;28;20026;-73
2023/11/30 04:07:29;;;;;;;10.75;4.28;;;;;;;-0.71;100.00;99392.34;5173213;28;20026;-76
2023/11/30 04:09:59;;;;;;;9.63;4.00;;;;;;;-0.84;100.00;99391.63;5154598;28;20061;-75
2023/11/30 04:12:30;;;;;;;9.10;4.25;;;;;;;-0.87;100.00;99383.13;5171196;28;20057;-74
2023/11/30 04:15:00;;;;;;;9.50;3.75;;;;;;;-0.90;100.00;99391.66;5173223;28;20026;-75
2023/11/30 04:17:31;;;;;;;9.75;4.13;;;;;;;-0.96;100.00;99388.31;5168710;28;20022;-73
2023/11/30 04:20:03;;;;;;;9.15;4.10;;;;;;;-0.82;100.00;99389.03;5171345;28;20045;-76
2023/11/30 04:22:33;;;;;;;8.48;4.07;;;;;;;-0.92;100.00;99390.00;5169417;28;20423;-75
2023/11/30 04:25:05;;;;;;;8.55;4.28;;;;;;;-0.81;100.00;99388.16;5170887;28;20038;-76
2023/11/30 04:27:35;;;;;;;10.95;4.25;;;;;;;-0.84;100.00;99389.06;5169489;28;20099;-72
2023/11/30 04:30:06;;;;;;;10.45;4.57;;;;;;;-1.02;100.00;99384.13;5171450;28;20022;-75
2023/11/30 04:32:36;;;;;;;10.63;4.93;;;;;;;-1.11;100.00;99385.88;5170913;28;20048;-75
2023/11/30 04:35:07;;;;;;;10.25;5.00;;;;;;;-1.12;100.00;99394.44;5175624;28;20387;-74
2023/11/30 04:37:37;;;;;;;9.68;4.70;;;;;;;-1.25;100.00;99387.72;5169647;28;20041;-74
2023/11/30 04:40:08;;;;;;;12.00;4.78;;;;;;;-1.34;100.00;99392.91;5155349;28;20148;-75
2023/11/30 04:42:38;;;;;;;11.20;5.03;;;;;;;-1.20;100.00;99393.66;5153836;28;20037;-75
2023/11/30 04:45:09;;;;;;;10.65;4.75;;;;;;;-1.35;100.00;99398.88;5174563;28;20029;-76
2023/11/30 04:47:39;;;;;;;11.98;5.07;;;;;;;-1.32;100.00;99399.72;5171655;28;20048;-76
2023/11/30 04:50:10;;;;;;;9.13;4.85;;;;;;;-1.44;100.00;99404.09;5175322;28;20022;-76
2023/11/30 04:52:40;;;;;;;10.77;5.32;;;;;;;-1.33;100.00;99392.91;5174927;28;20483;-74
2023/11/30 04:55:10;;;;;;;11.30;4.97;;;;;;;-1.21;100.00;99391.97;5174845;28;20056;-74
2023/11/30 04:57:41;;;;;;;9.73;5.00;;;;;;;-1.08;100.00;99401.25;5174697;28;20096;-75
2023/11/30 05:00:12;;;;;;;12.27;5.40;;;;;;;-1.10;100.00;99387.59;5176577;28;20092;-75
2023/11/30 05:02:51;;;;;;;9.63;4.88;;;;;;;-1.17;100.00;99394.50;5176728;28;20088;-74
2023/11/30 05:05:22;;;;;;;10.20;4.88;;;;;;;-1.35;100.00;99399.75;5177698;28;20029;-75
2023/11/30 05:07:52;;;;;;;11.00;4.93;;;;;;;-1.29;100.00;99396.28;5161980;28;20037;-75
2023/11/30 05:10:23;;;;;;;11.82;5.40;;;;;;;-1.30;100.00;99400.56;5178580;28;20076;-74
2023/11/30 05:12:53;;;;;;;11.68;5.03;;;;;;;-1.17;100.00;99407.31;5178096;28;20026;-74
2023/11/30 05:15:24;;;;;;;11.18;5.57;;;;;;;-1.02;100.00;99406.31;5180085;28;20095;-75
2023/11/30 05:17:54;;;;;;;9.95;5.05;;;;;;;-1.10;100.00;99410.66;5177372;28;20025;-75
2023/11/30 05:20:24;;;;;;;10.77;5.15;;;;;;;-1.21;100.00;99408.16;5177396;28;20449;-73
2023/11/30 05:22:54;;;;;;;12.18;5.55;;;;;;;-1.17;100.00;99414.13;5178138;28;20041;-75
2023/11/30 05:25:25;;;;;;;10.38;4.63;;;;;;;-1.16;100.00;99405.56;5179191;28;20443;-73
2023/11/30 05:27:57;;;;;;;10.75;5.40;;;;;;;-1.15;100.00;99412.41;5177038;28;20045;-72
2023/11/30 05:30:27;;;;;;;9.85;4.38;;;;;;;-1.00;100.00;99418.28;5176107;28;20240;-75
2023/11/30 05:32:58;;;;;;;10.98;5.00;;;;;;;-0.86;100.00;99420.69;5160677;28;20089;-75
2023/11/30 05:35:28;;;;;;;9.18;4.53;;;;;;;-0.73;100.00;99418.00;5177757;28;20030;-76
2023/11/30 05:37:58;;;;;;;11.02;4.95;;;;;;;-0.76;100.00;99418.03;5179429;28;20108;-75
2023/11/30 05:40:29;;;;;;;13.32;4.78;;;;;;;-0.87;100.00;99416.44;5179157;28;20026;-75
2023/11/30 05:42:59;;;;;;;12.38;5.72;;;;;;;-0.74;100.00;99415.47;5180067;28;20104;-74
2023/11/30 05:45:29;;;;;;;10.73;4.97;;;;;;;-0.83;100.00;99413.84;5172717;28;20033;-74
2023/11/30 05:48:00;;;;;;;10.50;4.63;;;;;;;-0.75;100.00;99419.75;5177028;28;20022;-75
2023/11/30 05:50:30;;;;;;;9.88;4.68;;;;;;;-0.66;100.00;99423.94;5177283;28;20018;-75
2023/11/30 05:53:01;;;;;;;10.05;4.72;;;;;;;-0.56;100.00;99420.44;5179500;28;20050;-75
2023/11/30 05:55:32;;;;;;;10.93;5.40;;;;;;;-0.61;100.00;99428.16;5178888;28;20022;-76
2023/11/30 05:58:02;;;;;;;9.43;4.57;;;;;;;-0.66;100.00;99422.22;5179000;28;20395;-75
2023/11/30 06:00:32;;;;;;;10.27;4.53;;;;;;;-0.73;100.00;99422.31;5176690;28;20025;-75
2023/11/30 06:03:03;;;;;;;11.85;5.38;;;;;;;-0.65;100.00;99423.94;5177775;28;20042;-75
2023/11/30 06:05:33;;;;;;;11.77;4.55;;;;;;;-0.64;100.00;99417.06;5177455;28;20407;-75
2023/11/30 06:08:03;;;;;;;12.35;5.28;;;;;;;-0.54;100.00;99423.81;5178720;28;20318;-74
2023/11/30 06:10:33;;;;;;;9.43;4.80;;;;;;;-0.66;100.00;99429.06;5177661;28;20289;-75
2023/11/30 06:13:06;;;;;;;9.35;4.75;;;;;;;-0.52;100.00;99428.06;5177443;28;20037;-75
2023/11/30 06:15:37;;;;;;;9.40;5.15;;;;;;;-0.33;100.00;99431.28;5178885;28;20878;-75
2023/11/30 06:18:07;;;;;;;10.57;4.88;;;;;;;-0.48;100.00;99431.44;5179763;28;20104;-75
2023/11/30 06:20:37;;;;;;;11.85;5.32;;;;;;;-0.54;100.00;99442.59;5178272;28;20034;-74
2023/11/30 06:23:08;;;;;;;11.65;5.20;;;;;;;-0.49;100.00;99437.44;5177579;28;20502;-75
2023/11/30 06:25:38;;;;;;;9.85;4.70;;;;;;;-0.53;100.00;99443.47;5177355;28;20041;-76
2023/11/30 06:28:09;;;;;;;9.60;4.50;;;;;;;-0.43;100.00;99439.94;5179767;28;20116;-75
2023/11/30 06:30:39;;;;;;;9.55;4.70;;;;;;;-0.18;100.00;99446.53;5175314;28;20369;-75
2023/11/30 06:33:10;;;;;;;12.27;6.10;;;;;;;-0.25;100.00;99445.72;5177918;28;20052;-74
2023/11/30 06:35:40;;;;;;;10.63;5.10;;;;;;;-0.13;100.00;99447.31;5176619;28;20391;-75
2023/11/30 06:38:11;;;;;;;9.13;5.10;;;;;;;-0.37;100.00;99442.47;5179388;28;20022;-72
2023/11/30 06:40:41;;;;;;;9.90;4.55;;;;;;;-0.40;100.00;99450.19;5178075;28;20105;-76
2023/11/30 06:43:12;;;;;;;10.07;4.93;;;;;;;-0.45;100.00;99454.50;5205656;23;20543;-71
2023/11/30 06:45:43;;;;;;;13.35;5.72;;;;;;;-0.45;100.00;99452.78;5186072;28;20479;-72
2023/11/30 06:48:13;;;;;;;11.15;5.15;;;;;;;-0.27;100.00;99450.03;5172951;28;20351;-72
2023/11/30 06:50:43;;;;;;;12.32;5.30;;;;;;;-0.32;100.00;99451.81;5187846;28;20060;-72
2023/11/30 06:53:14;;;;;;;14.40;6.10;;;;;;;-0.01;100.00;99454.00;5190426;28;20017;-72
2023/11/30 06:55:44;;;;;;;11.35;5.45;;;;;;;-0.12;100.00;99456.72;5189748;28;20040;-72
2023/11/30 06:58:14;;;;;;;10.65;5.43;;;;;;;-0.17;100.00;99455.91;5191431;28;20494;-72
2023/11/30 07:00:44;;;;;;;11.73;6.13;;;;;;;-0.10;100.00;99449.84;5188803;28;20059;-72
2023/11/30 07:03:15;;;;;;;14.52;6.70;;;;;;;0.03;100.00;99449.69;5191846;28;20221;-72
2023/11/30 07:05:45;;;;;;;12.45;6.55;;;;;;;-0.11;100.00;99460.97;5189118;28;20025;-73
2023/11/30 07:08:15;;;;;;;12.85;6.13;;;;;;;-0.13;100.00;99457.59;5173958;28;20032;-72
2023/11/30 07:10:46;;;;;;;14.45;6.78;;;;;;;-0.13;100.00;99452.44;5188627;28;20025;-72
2023/11/30 07:13:19;;;;;;;14.20;6.18;;;;;;;-0.04;100.00;99445.50;5191314;28;20496;-72
2023/11/30 07:15:49;;;;;;;11.35;6.25;;;;;;;0.11;100.00;99450.44;5188431;28;20104;-72
2023/11/30 07:18:19;;;;;;;13.48;6.47;;;;;;;0.14;100.00;99451.25;5192158;28;20469;-72
2023/11/30 07:20:50;;;;;;;13.38;6.57;;;;;;;0.02;100.00;99442.88;5187998;28;20041;-72
2023/11/30 07:23:20;;;;;;;12.95;6.20;;;;;;;0.10;100.00;99449.63;5192517;28;20025;-72
2023/11/30 07:25:50;;;;;;;14.27;6.22;;;;;;;0.20;100.00;99447.78;5189659;28;20065;-72
2023/11/30 07:28:21;;;;;;;13.65;6.78;;;;;;;0.23;100.00;99448.56;5193050;28;20020;-73
2023/11/30 07:30:51;;;;;;;14.70;6.60;;;;;;;0.27;100.00;99452.81;5190090;28;20045;-72
2023/11/30 07:33:21;;;;;;;16.85;7.80;;;;;;;0.35;100.00;99448.41;5191958;28;20282;-72
2023/11/30 07:35:52;;;;;;;17.17;7.20;;;;;;;0.44;100.00;99455.16;5190292;28;20497;-72
2023/11/30 07:38:22;;;;;;;15.57;7.28;;;;;;;0.23;100.00;99456.28;5191645;28;20029;-72
2023/11/30 07:40:53;;;;;;;14.27;6.80;;;;;;;0.16;100.00;99464.94;5190284;28;20530;-72
2023/11/30 07:43:23;;;;;;;14.80;7.28;;;;;;;0.21;100.00;99460.59;5192894;28;20022;-73
2023/11/30 07:45:53;;;;;;;15.35;7.13;;;;;;;-0.04;100.00;99466.03;5172118;28;20041;-72
2023/11/30 07:48:24;;;;;;;16.17;7.45;;;;;;;-0.13;100.00;99472.97;5186538;28;20079;-71
2023/11/30 07:50:54;;;;;;;14.88;7.50;;;;;;;0.01;100.00;99456.56;5187156;28;20037;-73
2023/11/30 07:53:24;;;;;;;15.30;8.05;;;;;;;-0.07;100.00;99453.22;5189254;28;20025;-71
2023/11/30 07:55:56;;;;;;;14.30;7.03;;;;;;;-0.08;100.00;99466.09;5189413;28;20026;-73
2023/11/30 07:58:27;;;;;;;14.15;6.88;;;;;;;0.01;100.00;99457.41;5189582;28;20021;-72
2023/11/30 08:00:57;;;;;;;15.40;7.47;;;;;;;0.30;100.00;99464.75;5188470;28;20087;-72
2023/11/30 08:03:27;;;;;;;15.15;6.95;;;;;;;0.10;100.00;99465.03;5190305;28;20036;-72
2023/11/30 08:05:58;;;;;;;13.15;6.70;;;;;;;0.23;100.00;99465.72;5189095;28;20029;-73
2023/11/30 08:08:28;;;;;;;15.65;7.18;;;;;;;0.36;100.00;99457.81;5190219;28;20491;-73
2023/11/30 08:10:58;;;;;;;17.08;7.25;;;;;;;0.45;100.00;99457.72;5189676;28;20037;-73
2023/11/30 08:13:30;;;;;;;15.27;7.13;;;;;;;0.83;100.00;99452.88;5188422;28;20028;-72
2023/11/30 08:16:01;;;;;;;12.60;6.32;;;;;;;1.50;100.00;99453.50;5189072;28;20448;-72
2023/11/30 08:18:31;;;;;;;14.27;7.05;;;;;;;2.59;100.00;99450.44;5189626;28;20063;-72
2023/11/30 08:21:02;;;;;;;16.20;6.57;;;;;;;2.75;100.00;99446.66;5189214;28;20041;-73
2023/11/30 08:23:33;;;;;;;13.70;6.45;;;;;;;2.41;98.54;99453.41;5188496;28;20655;-73
2023/11/30 08:26:04;;;;;;;12.60;6.13;;;;;;;2.41;97.52;99450.84;5189350;28;20442;-73
2023/11/30 08:28:34;;;;;;;13.98;6.32;;;;;;;1.94;95.74;99454.38;5188756;28;20028;-73
2023/11/30 08:31:05;;;;;;;11.98;5.93;;;;;;;1.71;97.71;99458.25;5189319;28;20495;-73
2023/11/30 08:33:36;;;;;;;13.05;5.90;;;;;;;1.40;99.28;99454.50;5188476;28;20091;-73
2023/11/30 08:36:07;;;;;;;11.32;6.10;;;;;;;1.60;98.73;99449.03;5189284;28;20276;-73
2023/11/30 08:38:37;;;;;;;11.80;6.13;;;;;;;1.49;98.20;99456.09;5187897;28;20025;-72
2023/11/30 08:41:08;;;;;;;11.63;5.90;;;;;;;0.99;99.75;99454.34;5172058;28;20048;-72
2023/11/30 08:43:38;;;;;;;10.88;5.85;;;;;;;1.24;100.00;99463.38;5187514;28;20036;-71
2023/11/30 08:46:08;;;;;;;11.98;6.55;;;;;;;1.04;100.00;99459.44;5187081;28;20056;-72
2023/11/30 08:48:39;;;;;;;12.20;6.50;;;;;;;1.10;100.00;99457.59;5187812;28;20087;-72
2023/11/30 08:51:10;;;;;;;13.38;6.80;;;;;;;1.11;100.00;99467.03;5189412;28;20037;-72
2023/11/30 08:53:41;;;;;;;13.45;6.85;;;;;;;0.93;100.00;99454.44;5186679;28;20013;-72
2023/11/30 08:56:11;;;;;;;16.20;6.85;;;;;;;0.84;100.00;99454.59;5188586;28;20037;-72
2023/11/30 08:58:41;;;;;;;14.60;6.82;;;;;;;1.18;100.00;99455.75;5185270;28;20104;-71
2023/11/30 09:01:12;;;;;;;13.82;6.80;;;;;;;1.17;99.84;99448.91;5189019;28;20057;-73
2023/11/30 09:03:42;;;;;;;14.30;7.10;;;;;;;1.30;100.00;99437.56;5184840;28;20029;-72
2023/11/30 09:06:12;;;;;;;15.88;6.97;;;;;;;1.61;100.00;99446.41;5189067;28;20045;-73
2023/11/30 09:08:43;;;;;;;14.57;7.20;;;;;;;1.64;97.91;99441.22;5184830;28;21376;-73
2023/11/30 09:11:13;;;;;;;15.02;7.38;;;;;;;1.48;97.85;99434.66;5189023;28;20025;-73
2023/11/30 09:13:43;;;;;;;14.23;7.18;;;;;;;1.31;98.26;99428.97;5181718;28;20510;-73
2023/11/30 09:16:13;;;;;;;14.65;7.15;;;;;;;1.34;100.00;99436.63;5188062;28;20479;-73
2023/11/30 09:18:44;;;;;;;15.32;6.85;;;;;;;1.18;100.00;99440.31;5184335;28;20044;-73
2023/11/30 09:21:14;;;;;;;15.60;7.03;;;;;;;1.47;100.00;99429.53;5189312;28;20079;-73
2023/11/30 09:23:44;;;;;;;13.55;6.72;;;;;;;1.62;100.00;99432.69;5185858;28;20049;-72
2023/11/30 09:26:15;;;;;;;15.63;7.25;;;;;;;1.77;99.46;99434.13;5189719;28;20108;-73
2023/11/30 09:28:45;;;;;;;16.42;6.97;;;;;;;1.93;100.00;99438.94;5184864;28;20492;-72
2023/11/30 09:31:15;;;;;;;16.17;7.70;;;;;;;1.87;98.47;99433.91;5189531;28;20026;-73
2023/11/30 09:33:45;;;;;;;13.50;6.95;;;;;;;2.12;97.98;99430.81;5185032;28;20033;-73
2023/11/30 09:36:16;;;;;;;13.70;7.60;;;;;;;2.32;96.19;99435.59;5190443;28;20033;-72
2023/11/30 09:38:46;;;;;;;14.00;7.50;;;;;;;2.21;92.86;99429.78;5184832;28;20418;-72
2023/11/30 09:41:21;;;;;;;16.20;7.97;;;;;;;2.03;94.23;99435.31;5182111;28;20483;-72
2023/11/30 09:43:52;;;;;;;13.60;7.15;;;;;;;1.84;96.45;99433.97;5185760;28;20422;-73
2023/11/30 09:46:22;;;;;;;15.05;7.43;;;;;;;1.91;97.24;99438.13;5188823;28;20034;-73
2023/11/30 09:48:52;;;;;;;12.90;7.25;;;;;;;1.82;98.72;99435.75;5189890;28;20383;-73
2023/11/30 09:51:24;;;;;;;15.98;7.43;;;;;;;1.81;99.91;99423.75;5193114;28;20538;-73
2023/11/30 09:53:57;;;;;;;14.15;7.32;;;;;;;1.86;98.81;99429.66;5190390;28;20553;-73
2023/11/30 09:56:27;;;;;;;13.27;7.30;;;;;;;1.94;96.97;99427.75;5174711;28;20022;-72
2023/11/30 09:58:58;;;;;;;12.93;6.80;;;;;;;1.92;97.27;99420.06;5193674;28;20026;-73
2023/11/30 10:01:28;;;;;;;14.07;6.68;;;;;;;1.46;97.38;99420.09;5192425;28;20025;-73
2023/11/30 10:03:58;;;;;;;14.82;6.50;;;;;;;1.36;100.00;99419.44;5191491;28;20041;-72
2023/11/30 10:06:29;;;;;;;11.25;5.90;;;;;;;1.47;100.00;99414.09;5192640;28;20392;-73
2023/11/30 10:09:02;;;;;;;15.82;6.32;;;;;;;1.56;100.00;99407.03;5191955;28;20214;-73
2023/11/30 10:11:34;;;;;;;12.63;6.28;;;;;;;1.57;99.61;99408.75;5193523;28;20028;-71
2023/11/30 10:14:04;;;;;;;10.32;5.40;;;;;;;1.74;99.38;99406.69;5192272;28;20044;-73
2023/11/30 10:16:35;;;;;;;10.73;5.45;;;;;;;1.82;98.27;99404.84;5190807;28;20033;-72
2023/11/30 10:19:06;;;;;;;11.68;5.45;;;;;;;1.64;95.47;99399.19;5192332;28;20022;-73
2023/11/30 10:21:39;;;;;;;11.90;5.68;;;;;;;1.50;96.50;99399.44;5190540;28;20289;-73
2023/11/30 10:24:09;;;;;;;12.15;6.07;;;;;;;1.65;95.82;99394.00;5192810;28;20033;-73
2023/11/30 10:26:43;;;;;;;13.00;6.45;;;;;;;1.63;95.29;99382.91;5190205;28;20511;-71
2023/11/30 10:29:15;;;;;;;11.80;6.20;;;;;;;1.64;95.77;99388.88;5194367;28;20246;-72
2023/11/30 10:31:49;;;;;;;14.35;6.45;;;;;;;1.59;95.67;99395.84;5171170;28;20372;-72
2023/11/30 10:34:28;;;;;;;12.43;6.47;;;;;;;1.57;96.22;99393.28;5186484;28;20056;-73
2023/11/30 10:37:01;;;;;;;11.52;6.63;;;;;;;1.70;98.49;99392.19;5190042;28;20383;-73
2023/11/30 10:39:36;;;;;;;13.27;7.28;;;;;;;1.62;97.80;99388.94;5191462;28;20522;-72
2023/11/30 10:42:12;;;;;;;13.90;7.28;;;;;;;1.60;97.75;99382.94;5191261;28;20048;-73
2023/11/30 10:44:48;;;;;;;12.40;6.63;;;;;;;1.69;97.73;99375.03;5188878;28;20085;-72
2023/11/30 10:47:19;;;;;;;13.25;7.03;;;;;;;1.73;97.53;99381.00;5186557;28;20081;-72
2023/11/30 10:49:51;;;;;;;14.43;6.82;;;;;;;1.82;99.00;99381.66;5188750;28;20038;-72
2023/11/30 10:52:22;;;;;;;12.40;6.95;;;;;;;1.82;99.56;99385.06;5192957;28;20035;-73
2023/11/30 10:54:59;;;;;;;16.75;7.55;;;;;;;1.53;99.36;99367.63;5171975;28;20171;-73
2023/11/30 10:57:31;;;;;;;13.80;6.85;;;;;;;1.59;100.00;99375.25;5191750;28;20350;-73
2023/11/30 11:00:02;;;;;;;15.55;7.68;;;;;;;1.73;100.00;99376.69;5188757;28;20135;-72
2023/11/30 11:02:37;;;;;;;17.95;7.78;;;;;;;1.82;99.76;99379.09;5190279;28;20403;-72
2023/11/30 11:05:09;;;;;;;;;;;;;;;1.84;100.00;99365.28;5191256;28;20064;-72
2023/11/30 11:07:51;;;;;;;12.50;6.45;;;;;;;1.87;100.00;99359.22;5190329;28;19924;-72
2023/11/30 11:10:23;;;;;;;15.70;7.72;;;;;;;2.04;99.94;99360.59;5185508;28;20048;-72
2023/11/30 11:12:58;;;;;;;15.20;7.82;;;;;;;1.97;100.00;99358.19;5170928;28;20068;-72
2023/11/30 11:15:29;;;;;;;17.05;7.30;;;;;;;1.88;98.33;99350.63;5191010;28;20036;-72
2023/11/30 11:18:05;;;;;;;14.55;7.35;;;;;;;2.16;97.47;99347.44;5190083;28;20375;-72
2023/11/30 11:20:36;;;;;;;14.15;7.15;;;;;;;2.31;96.90;99351.41;5190400;28;20437;-72
2023/11/30 11:23:08;;;;;;;12.60;7.60;;;;;;;2.24;97.76;99344.69;5189670;28;20038;-72
2023/11/30 11:25:38;;;;;;;12.55;6.50;;;;;;;2.22;96.21;99338.72;5189920;28;20049;-72
2023/11/30 11:28:09;;;;;;;14.10;6.88;;;;;;;2.21;95.90;99337.03;5190832;28;20510;-72
2023/11/30 11:30:44;;;;;;;12.25;6.35;;;;;;;2.36;96.87;99336.69;5189111;28;20391;-71
2023/11/30 11:33:15;;;;;;;;;;;;;;;2.28;98.22;99333.41;5186603;28;20029;-72
2023/11/30 11:35:46;;;;;;;11.82;6.50;;;;;;;2.18;95.22;99337.09;5187611;28;20398;-72
2023/11/30 11:38:18;;;;;;;11.25;6.60;;;;;;;1.92;95.90;99340.25;5174021;28;20029;-72
2023/11/30 11:40:48;;;;;;;11.32;5.60;;;;;;;1.96;96.30;99333.31;5182055;28;20108;-71
2023/11/30 11:43:19;;;;;;;11.50;6.03;;;;;;;2.08;95.57;99331.31;5188239;28;20112;-72
2023/11/30 11:45:49;;;;;;;13.40;6.18;;;;;;;1.98;93.78;99334.13;5183367;28;20091;-71